Terminal Aerodrome Forecast
Issued by NWS Grand Forks, ND

Home | Current Version | Previous Version | Text Only | Print | Product List | Glossary Off
Versions: 1 2 3 4 5 6 7 8 9 10 11 12

000
FTUS43 KFGF 261720
TAFFAR
TAF
KFAR 261720Z 2618/2718 08011KT P6SM OVC020
     FM270000 09010KT P6SM OVC050
     FM271200 07013KT P6SM BKN250=

USA.gov is the U.S. government's official web portal to all federal, state and local government web resources and services.